Time;durP1;ratioP1;P1;durP2;ratioP2;P2;SDS_P1;SDS_P2;PMS_P1;PMS_P2;Temp;Humidity;BMP_temperature;BMP_pressure;BME280_temperature;BME280_humidity;BME280_pressure;Samples;Min_cycle;Max_cycle;Signal;HPM_P1;HPM_P2
2021/01/28 00:00:26;;;;;;;8.07;4.70;;;4.00;96.70;;;;;;5032296;28;20197;-71
2021/01/28 00:02:53;;;;;;;9.40;5.37;;;4.00;96.60;;;;;;5050916;28;20506;-73
2021/01/28 00:05:20;;;;;;;9.47;5.60;;;4.00;96.60;;;;;;5032102;28;20451;-73
2021/01/28 00:07:46;;;;;;;7.57;4.60;;;4.00;96.50;;;;;;5050642;28;20443;-73
2021/01/28 00:10:12;;;;;;;9.67;4.57;;;4.00;96.50;;;;;;5050165;28;20825;-73
2021/01/28 00:12:39;;;;;;;9.30;5.53;;;4.00;96.40;;;;;;5050127;28;20447;-73
2021/01/28 00:15:07;;;;;;;11.03;5.80;;;4.00;96.30;;;;;;5030856;28;20435;-72
2021/01/28 00:17:33;;;;;;;8.43;5.10;;;3.90;96.30;;;;;;5049973;28;20482;-72
2021/01/28 00:19:59;;;;;;;7.67;4.60;;;3.90;96.30;;;;;;5049650;28;20418;-72
2021/01/28 00:22:25;;;;;;;9.00;5.63;;;3.90;96.50;;;;;;5031685;28;20956;-72
2021/01/28 00:24:50;;;;;;;20.10;6.03;;;3.90;96.50;;;;;;5041009;28;20188;-73
2021/01/28 00:27:16;;;;;;;12.57;6.00;;;4.00;96.50;;;;;;5049628;28;20236;-72
2021/01/28 00:29:42;;;;;;;9.80;5.90;;;3.90;96.30;;;;;;5031711;28;20243;-73
2021/01/28 00:32:08;;;;;;;11.50;5.93;;;3.90;96.30;;;;;;5049587;28;20506;-72
2021/01/28 00:34:34;;;;;;;10.80;5.43;;;3.90;96.30;;;;;;5048913;28;20563;-72
2021/01/28 00:37:00;;;;;;;13.17;6.87;;;3.90;96.30;;;;;;5050045;28;20439;-72
2021/01/28 00:39:26;;;;;;;7.28;4.85;;;3.90;96.30;;;;;;5050141;28;20249;-73
2021/01/28 00:41:52;;;;;;;7.90;4.70;;;3.90;96.40;;;;;;5031736;28;20600;-72
2021/01/28 00:44:17;;;;;;;7.63;4.10;;;3.90;96.20;;;;;;5048697;28;20185;-71
2021/01/28 00:46:43;;;;;;;7.87;4.30;;;3.90;95.80;;;;;;5049144;28;20753;-72
2021/01/28 00:49:09;;;;;;;9.37;5.03;;;3.90;95.80;;;;;;5032804;28;20632;-73
2021/01/28 00:51:35;;;;;;;8.10;4.65;;;3.90;95.90;;;;;;5049426;28;20208;-72
2021/01/28 00:54:01;;;;;;;7.80;4.40;;;3.90;96.00;;;;;;5050552;28;20654;-71
2021/01/28 00:56:27;;;;;;;7.13;4.50;;;4.00;95.90;;;;;;5048693;28;20200;-72
2021/01/28 00:58:53;;;;;;;11.57;4.57;;;3.90;95.80;;;;;;5049232;28;20447;-72
2021/01/28 01:01:18;;;;;;;6.10;4.20;;;3.90;95.80;;;;;;5049000;28;20218;-71
2021/01/28 01:03:44;;;;;;;8.07;4.47;;;3.90;95.90;;;;;;5048968;28;20585;-73
2021/01/28 01:06:10;;;;;;;7.17;4.50;;;4.00;95.80;;;;;;5047770;28;20287;-72
2021/01/28 01:08:36;;;;;;;11.23;4.47;;;4.00;95.70;;;;;;5048910;28;20330;-72
2021/01/28 01:11:04;;;;;;;11.07;4.57;;;4.00;95.70;;;;;;5030881;28;20184;-71
2021/01/28 01:13:32;;;;;;;10.57;4.45;;;4.00;95.60;;;;;;5050288;28;20188;-73
2021/01/28 01:15:59;;;;;;;8.00;4.60;;;4.00;95.60;;;;;;5050203;28;20733;-72
2021/01/28 01:18:28;;;;;;;9.80;4.63;;;3.90;95.60;;;;;;5031713;28;20864;-72
2021/01/28 01:20:55;;;;;;;8.57;4.53;;;3.90;95.70;;;;;;5049107;28;20461;-71
2021/01/28 01:23:21;;;;;;;9.35;4.82;;;4.00;95.80;;;;;;5032048;28;20431;-72
2021/01/28 01:25:47;;;;;;;6.80;4.10;;;4.00;95.70;;;;;;5048478;28;20211;-72
2021/01/28 01:28:13;;;;;;;8.57;4.37;;;4.00;95.60;;;;;;5031148;28;20691;-72
2021/01/28 01:30:39;;;;;;;8.53;4.27;;;4.00;95.60;;;;;;5049239;28;20788;-72
2021/01/28 01:33:06;;;;;;;6.63;3.73;;;4.00;95.60;;;;;;5051971;28;20422;-71
2021/01/28 01:35:32;;;;;;;9.90;4.50;;;4.00;95.60;;;;;;5055047;28;20259;-71
2021/01/28 01:37:58;;;;;;;8.75;4.35;;;4.00;95.70;;;;;;5037275;28;20973;-72
2021/01/28 01:40:31;;;;;;;8.27;4.13;;;4.00;95.70;;;;;;5055003;28;20192;-72
2021/01/28 01:42:57;;;;;;;6.95;5.00;;;4.00;95.50;;;;;;5055145;28;20427;-70
2021/01/28 01:45:41;;;;;;;7.82;4.53;;;4.00;95.40;;;;;;5036233;28;20655;-71
2021/01/28 01:48:10;;;;;;;6.53;3.43;;;4.00;95.50;;;;;;5036090;28;20216;-72
2021/01/28 01:50:53;;;;;;;9.70;5.03;;;4.00;95.50;;;;;;5036382;28;20439;-71
2021/01/28 01:53:38;;;;;;;6.60;4.87;;;4.10;95.50;;;;;;5023828;28;20422;-72
2021/01/28 01:56:24;;;;;;;8.00;4.27;;;4.00;95.40;;;;;;5039716;28;20434;-72
2021/01/28 01:59:02;;;;;;;9.40;5.20;;;4.00;95.50;;;;;;5056416;28;20427;-71
2021/01/28 02:01:31;;;;;;;7.07;3.57;;;4.10;95.50;;;;;;5037773;28;20430;-72
2021/01/28 02:03:57;;;;;;;7.90;4.70;;;4.10;95.40;;;;;;5054853;28;20441;-72
2021/01/28 02:06:41;;;;;;;9.20;4.03;;;4.10;95.30;;;;;;5053759;28;20521;-72
2021/01/28 02:09:10;;;;;;;6.47;4.00;;;4.10;95.20;;;;;;5054261;28;20528;-72
2021/01/28 02:11:38;;;;;;;6.43;3.83;;;4.20;95.30;;;;;;5036171;28;20517;-72
2021/01/28 02:14:06;;;;;;;7.07;3.80;;;4.10;95.10;;;;;;5055473;28;21244;-72
2021/01/28 02:16:37;;;;;;;5.03;3.40;;;4.20;95.20;;;;;;5053367;28;20458;-72
2021/01/28 02:19:12;;;;;;;9.50;3.60;;;4.20;95.10;;;;;;5040595;28;20434;-72
2021/01/28 02:21:38;;;;;;;7.40;3.87;;;4.20;95.10;;;;;;5054364;28;20427;-72
2021/01/28 02:24:32;;;;;;;6.67;3.70;;;4.20;95.10;;;;;;5054796;28;20427;-71
2021/01/28 02:26:59;;;;;;;6.13;3.40;;;4.20;95.10;;;;;;5053472;28;20538;-72
2021/01/28 02:29:25;;;;;;;7.03;3.40;;;4.20;95.10;;;;;;5052146;28;20474;-72
2021/01/28 02:31:53;;;;;;;4.90;3.23;;;4.20;95.10;;;;;;5051723;28;20226;-72
2021/01/28 02:34:20;;;;;;;6.23;3.47;;;4.20;95.10;;;;;;5052044;28;20423;-72
2021/01/28 02:36:49;;;;;;;5.00;3.17;;;4.30;95.00;;;;;;5034562;28;20457;-72
2021/01/28 02:39:20;;;;;;;6.33;3.27;;;4.30;95.00;;;;;;5051569;28;20459;-72
2021/01/28 02:42:09;;;;;;;6.73;3.80;;;4.30;95.00;;;;;;5020161;28;20431;-72
2021/01/28 02:44:35;;;;;;;7.77;3.53;;;4.30;95.10;;;;;;5049769;28;20522;-71
2021/01/28 02:47:01;;;;;;;6.70;3.20;;;4.30;95.00;;;;;;5051596;28;20600;-72
2021/01/28 02:49:26;;;;;;;5.73;3.10;;;4.30;94.90;;;;;;5051427;28;20719;-72
2021/01/28 02:51:52;;;;;;;4.90;2.80;;;4.30;94.90;;;;;;5051687;28;20184;-70
2021/01/28 02:54:18;;;;;;;5.27;2.83;;;4.30;94.90;;;;;;5032614;28;20184;-71
2021/01/28 02:56:44;;;;;;;6.47;3.40;;;4.30;95.00;;;;;;5033156;28;20790;-71
2021/01/28 02:59:10;;;;;;;4.30;2.87;;;4.30;95.00;;;;;;5052121;28;20211;-71
2021/01/28 03:01:38;;;;;;;3.23;2.23;;;4.40;95.10;;;;;;5051787;28;20271;-72
2021/01/28 03:04:04;;;;;;;8.13;3.60;;;4.40;95.00;;;;;;5051430;28;20423;-71
2021/01/28 03:06:30;;;;;;;6.33;3.20;;;4.40;95.00;;;;;;5050845;28;20978;-70
2021/01/28 03:08:56;;;;;;;4.70;2.40;;;4.40;95.00;;;;;;5052273;28;21151;-72
2021/01/28 03:11:22;;;;;;;3.17;2.10;;;4.40;95.00;;;;;;5051846;28;20662;-73
2021/01/28 03:13:47;;;;;;;4.83;2.80;;;4.40;95.00;;;;;;5051914;28;20465;-72
2021/01/28 03:16:13;;;;;;;5.43;2.70;;;4.40;94.90;;;;;;5033430;28;20656;-72
2021/01/28 03:18:39;;;;;;;5.07;2.97;;;4.40;95.00;;;;;;5051662;28;20180;-72
2021/01/28 03:21:05;;;;;;;5.00;2.90;;;4.40;95.00;;;;;;5051513;28;20204;-71
2021/01/28 03:23:31;;;;;;;4.70;2.60;;;4.40;95.00;;;;;;5038362;28;20423;-72
2021/01/28 03:25:57;;;;;;;3.27;2.30;;;4.50;94.90;;;;;;5050979;28;20453;-72
2021/01/28 03:28:22;;;;;;;3.70;2.40;;;4.50;95.00;;;;;;5050762;28;20703;-71
2021/01/28 03:30:50;;;;;;;5.67;2.27;;;4.50;94.90;;;;;;5050964;28;20188;-72
2021/01/28 03:33:19;;;;;;;5.10;2.80;;;4.50;95.00;;;;;;5033554;28;20262;-72
2021/01/28 03:35:45;;;;;;;5.43;3.40;;;4.50;95.00;;;;;;5050556;28;20426;-71
2021/01/28 03:38:12;;;;;;;3.40;2.47;;;4.50;95.00;;;;;;5051217;28;20496;-72
2021/01/28 03:40:39;;;;;;;4.10;2.63;;;4.50;95.10;;;;;;5050642;28;20502;-72
2021/01/28 03:43:05;;;;;;;5.37;3.00;;;4.50;95.10;;;;;;5050636;28;20426;-70
2021/01/28 03:45:31;;;;;;;4.27;2.67;;;4.50;95.10;;;;;;5050348;28;20423;-72
2021/01/28 03:47:58;;;;;;;6.07;3.07;;;4.50;95.20;;;;;;5055269;28;20775;-71
2021/01/28 03:50:34;;;;;;;5.60;3.20;;;4.50;95.30;;;;;;5035646;28;21202;-71
2021/01/28 03:53:00;;;;;;;9.50;2.90;;;4.50;95.30;;;;;;5054866;28;21153;-71
2021/01/28 03:55:26;;;;;;;6.40;3.23;;;4.50;95.40;;;;;;5052555;28;20521;-73
2021/01/28 03:57:53;;;;;;;2.77;1.90;;;4.50;95.50;;;;;;5051516;28;20552;-71
2021/01/28 04:00:29;;;;;;;4.60;2.53;;;4.50;95.80;;;;;;5031712;28;20802;-73
2021/01/28 04:02:55;;;;;;;3.80;2.50;;;4.50;95.90;;;;;;5020195;28;20526;-71
2021/01/28 04:05:21;;;;;;;2.93;1.93;;;4.60;96.30;;;;;;5048704;28;20415;-74
2021/01/28 04:07:47;;;;;;;4.07;2.20;;;4.60;96.60;;;;;;5050325;28;20446;-73
2021/01/28 04:10:18;;;;;;;3.67;2.47;;;4.60;96.80;;;;;;5032859;28;20463;-74
2021/01/28 04:12:44;;;;;;;7.07;2.70;;;4.70;97.00;;;;;;5052186;28;20418;-73
2021/01/28 04:15:11;;;;;;;5.53;2.47;;;4.70;97.30;;;;;;5051706;28;20921;-71
2021/01/28 04:17:37;;;;;;;5.80;3.20;;;4.80;97.40;;;;;;5037394;28;20469;-73
2021/01/28 04:20:05;;;;;;;8.13;3.07;;;4.80;97.30;;;;;;5054070;28;20429;-73
2021/01/28 04:22:31;;;;;;;5.33;3.00;;;4.80;97.20;;;;;;5051538;28;20431;-72
2021/01/28 04:24:57;;;;;;;7.70;3.60;;;4.80;97.00;;;;;;5049874;28;20522;-71
2021/01/28 04:27:22;;;;;;;6.20;3.30;;;4.80;96.90;;;;;;5049620;28;20682;-72
2021/01/28 04:29:48;;;;;;;6.57;3.93;;;4.70;96.80;;;;;;5031328;28;20212;-72
2021/01/28 04:32:14;;;;;;;9.67;4.63;;;4.70;96.90;;;;;;5049679;28;20581;-70
2021/01/28 04:34:40;;;;;;;7.93;4.43;;;4.70;96.90;;;;;;5031028;28;20581;-72
2021/01/28 04:37:05;;;;;;;8.03;4.13;;;4.70;96.80;;;;;;5044797;28;20266;-71
2021/01/28 04:39:31;;;;;;;7.07;3.40;;;4.80;96.70;;;;;;5044593;28;20874;-72
2021/01/28 04:41:57;;;;;;;5.87;3.60;;;4.70;96.50;;;;;;5050878;28;20272;-71
2021/01/28 04:44:23;;;;;;;8.17;3.63;;;4.80;96.50;;;;;;5052938;28;20185;-71
2021/01/28 04:46:53;;;;;;;7.93;4.30;;;4.80;96.30;;;;;;5051600;28;20466;-71
2021/01/28 04:49:21;;;;;;;11.13;4.93;;;4.80;96.20;;;;;;5053964;28;20454;-71
2021/01/28 04:51:49;;;;;;;9.07;4.40;;;4.70;96.10;;;;;;5055198;28;20419;-72
2021/01/28 04:54:25;;;;;;;11.17;4.80;;;4.70;96.10;;;;;;5032319;28;20431;-72
2021/01/28 04:56:52;;;;;;;7.87;4.13;;;4.70;96.10;;;;;;5030498;28;20524;-73
2021/01/28 04:59:22;;;;;;;8.53;4.10;;;4.70;95.90;;;;;;5029572;28;20426;-72
2021/01/28 05:01:48;;;;;;;6.30;3.77;;;4.80;95.80;;;;;;5047716;28;20414;-72
2021/01/28 05:04:18;;;;;;;7.60;3.63;;;4.80;95.80;;;;;;5029559;28;20580;-71
2021/01/28 05:06:44;;;;;;;8.67;4.33;;;4.80;95.50;;;;;;5030546;28;20442;-74
2021/01/28 05:09:11;;;;;;;6.63;3.60;;;4.80;95.50;;;;;;5029213;28;20474;-71
2021/01/28 05:11:37;;;;;;;9.03;4.23;;;4.70;95.50;;;;;;5029845;28;21076;-73
2021/01/28 05:14:37;;;;;;;7.07;3.70;;;4.80;95.60;;;;;;5048912;28;20422;-73
2021/01/28 05:17:06;;;;;;;8.27;3.90;;;4.80;95.40;;;;;;5049280;28;20497;-71
2021/01/28 05:19:45;;;;;;;8.37;3.67;;;4.80;95.30;;;;;;5049403;28;20450;-72
2021/01/28 05:22:17;;;;;;;6.57;3.83;;;4.80;95.10;;;;;;5051301;28;20548;-72
2021/01/28 05:24:52;;;;;;;7.97;4.07;;;4.80;95.20;;;;;;5047991;28;20427;-73
2021/01/28 05:27:24;;;;;;;10.70;4.47;;;4.80;95.20;;;;;;5018421;28;20453;-73
2021/01/28 05:29:51;;;;;;;7.80;4.20;;;4.80;95.30;;;;;;5030225;28;20474;-73
2021/01/28 05:32:34;;;;;;;6.67;4.30;;;4.90;95.30;;;;;;5048724;28;20431;-72
2021/01/28 05:35:18;;;;;;;5.53;3.40;;;4.90;95.20;;;;;;5048150;28;20427;-72
2021/01/28 05:37:44;;;;;;;6.60;3.33;;;5.00;94.80;;;;;;5023480;28;20454;-73
2021/01/28 05:40:25;;;;;;;6.93;3.77;;;5.00;94.50;;;;;;5030522;28;20431;-72
2021/01/28 05:42:52;;;;;;;10.30;5.13;;;4.90;94.30;;;;;;5048435;28;20423;-71
2021/01/28 05:45:23;;;;;;;7.87;4.33;;;4.90;94.50;;;;;;5047228;28;20419;-73
2021/01/28 05:47:50;;;;;;;6.93;4.17;;;4.90;94.40;;;;;;5030392;28;20848;-72
2021/01/28 05:50:29;;;;;;;8.20;4.33;;;4.90;94.60;;;;;;5047861;28;20475;-72
2021/01/28 05:53:11;;;;;;;9.63;4.33;;;5.00;94.60;;;;;;5048395;28;20411;-73
2021/01/28 05:55:37;;;;;;;18.73;3.00;;;5.00;94.70;;;;;;5030087;28;20439;-73
2021/01/28 05:58:11;;;;;;;7.03;4.00;;;4.90;94.70;;;;;;5031127;28;20457;-72
2021/01/28 06:00:49;;;;;;;8.97;4.47;;;5.00;94.80;;;;;;5048306;28;20250;-74
2021/01/28 06:03:26;;;;;;;31.70;2.20;;;5.00;94.70;;;;;;5048684;28;20433;-70
2021/01/28 06:06:16;;;;;;;16.97;1.50;;;4.90;94.90;;;;;;5050126;28;20419;-73
2021/01/28 06:08:48;;;;;;;25.40;2.00;;;4.90;95.00;;;;;;5060402;28;20471;-72
2021/01/28 06:11:28;;;;;;;34.93;3.20;;;4.80;95.30;;;;;;5056866;28;20439;-75
2021/01/28 06:14:09;;;;;;;23.13;3.27;;;4.80;95.60;;;;;;5059769;28;20415;-73
2021/01/28 06:16:50;;;;;;;1.77;0.40;;;4.70;96.00;;;;;;5032787;28;20458;-73
2021/01/28 06:19:53;;;;;;;29.63;4.80;;;4.80;96.30;;;;;;5052625;28;20509;-71
2021/01/28 06:22:32;;;;;;;9.07;3.50;;;4.90;96.40;;;;;;5039117;28;20798;-73
2021/01/28 06:25:32;;;;;;;29.37;27.43;;;4.80;96.40;;;;;;5055760;28;21039;-74
2021/01/28 06:28:25;;;;;;;6.93;3.30;;;4.80;96.50;;;;;;5038180;28;20458;-72
2021/01/28 06:31:16;;;;;;;7.17;3.97;;;4.90;96.60;;;;;;5047434;28;20430;-73
2021/01/28 06:34:15;;;;;;;7.50;3.53;;;4.90;96.50;;;;;;5045941;28;20427;-73
2021/01/28 06:36:57;;;;;;;6.33;2.90;;;4.90;96.80;;;;;;5054372;28;20953;-72
2021/01/28 06:39:32;;;;;;;4.03;2.33;;;5.00;97.00;;;;;;5031506;28;20799;-73
2021/01/28 06:41:57;;;;;;;2.47;2.30;;;5.10;97.20;;;;;;5052872;28;20418;-73
2021/01/28 06:44:33;;;;;;;5.50;1.90;;;5.10;97.20;;;;;;5052134;28;20421;-72
2021/01/28 06:47:27;;;;;;;3.73;2.40;;;5.10;97.20;;;;;;5052535;28;20578;-71
2021/01/28 06:50:28;;;;;;;3.37;2.90;;;5.20;97.30;;;;;;5038935;28;20549;-72
2021/01/28 06:53:04;;;;;;;5.07;2.97;;;5.20;97.40;;;;;;4970406;28;20799;-72
2021/01/28 06:55:32;;;;;;;5.33;2.40;;;5.20;97.30;;;;;;4953054;28;20442;-74
2021/01/28 06:58:11;;;;;;;5.83;2.87;;;5.10;97.20;;;;;;4970503;28;20859;-72
2021/01/28 07:00:43;;;;;;;5.33;3.30;;;5.10;97.20;;;;;;4973260;28;20441;-73
2021/01/28 07:03:46;;;;;;;6.60;3.90;;;5.10;97.50;;;;;;4974952;28;20461;-71
2021/01/28 07:06:26;;;;;;;3.93;2.80;;;5.20;97.80;;;;;;4960263;28;20426;-73
2021/01/28 07:09:21;;;;;;;4.53;3.20;;;5.30;98.00;;;;;;4973548;28;20496;-73
2021/01/28 07:11:56;;;;;;;4.67;3.00;;;5.30;98.00;;;;;;4934281;29;20436;-72
2021/01/28 07:14:23;;;;;;;5.20;3.00;;;5.30;98.10;;;;;;4931410;29;20460;-72
2021/01/28 07:16:59;;;;;;;3.90;2.50;;;5.40;98.00;;;;;;4931757;29;21011;-73
2021/01/28 07:19:31;;;;;;;6.33;2.80;;;5.40;98.00;;;;;;4931805;29;20849;-73
2021/01/28 07:21:57;;;;;;;4.13;2.30;;;5.40;98.00;;;;;;4916449;29;20503;-73
2021/01/28 07:24:23;;;;;;;4.30;2.63;;;5.30;98.00;;;;;;4921733;29;21271;-75
2021/01/28 07:27:06;;;;;;;6.83;3.20;;;5.30;98.00;;;;;;4956258;28;20536;-75
2021/01/28 07:29:31;;;;;;;41.93;13.90;;;5.30;98.00;;;;;;4990069;28;20218;-76
2021/01/28 07:32:09;;;;;;;23.40;2.00;;;5.40;98.00;;;;;;4974719;28;20433;-75
2021/01/28 07:34:35;;;;;;;5.70;2.57;;;5.40;98.00;;;;;;4989460;28;20641;-76
2021/01/28 07:37:22;;;;;;;12.63;2.87;;;5.30;97.90;;;;;;4991089;28;20481;-75
2021/01/28 07:39:48;;;;;;;6.27;2.20;;;5.40;98.20;;;;;;4986204;28;20433;-77
2021/01/28 07:42:16;;;;;;;10.73;3.40;;;5.30;98.20;;;;;;4991693;28;21050;-75
2021/01/28 07:44:48;;;;;;;7.53;2.80;;;5.30;98.20;;;;;;4979683;28;20440;-75
2021/01/28 07:47:29;;;;;;;9.83;3.13;;;5.40;98.40;;;;;;4995876;28;20484;-76
2021/01/28 07:50:29;;;;;;;3.37;0.70;;;5.40;98.40;;;;;;5051196;28;20547;-77
2021/01/28 07:52:56;;;;;;;6.43;3.00;;;5.40;98.30;;;;;;5033129;28;20431;-74
2021/01/28 07:55:42;;;;;;;9.10;2.90;;;5.30;98.30;;;;;;5050036;28;20423;-76
2021/01/28 07:58:36;;;;;;;1999.90;999.90;;;5.20;98.60;;;;;;5039552;28;20439;-76
2021/01/28 08:01:12;;;;;;;8.30;3.53;;;5.20;98.80;;;;;;5051492;28;20426;-76
2021/01/28 08:03:59;;;;;;;10.03;3.43;;;5.20;99.00;;;;;;5032620;28;20431;-76
2021/01/28 08:06:25;;;;;;;6.10;3.20;;;5.10;99.10;;;;;;5040651;28;20477;-77
2021/01/28 08:09:23;;;;;;;11.70;3.80;;;5.10;99.50;;;;;;5044716;28;20627;-76
2021/01/28 08:11:51;;;;;;;7.97;3.63;;;5.10;99.60;;;;;;4965534;28;20517;-75
2021/01/28 08:14:24;;;;;;;13.70;3.87;;;5.10;99.80;;;;;;4974385;28;20426;-76
2021/01/28 08:16:53;;;;;;;6.13;3.10;;;5.10;99.80;;;;;;4974279;28;20450;-73
2021/01/28 08:19:22;;;;;;;2.17;1.60;;;5.10;99.90;;;;;;4973431;28;20458;-73
2021/01/28 08:21:48;;;;;;;7.23;3.80;;;5.10;99.90;;;;;;4974872;28;20427;-73
2021/01/28 08:24:35;;;;;;;223.47;191.63;;;5.10;99.90;;;;;;4956888;28;20451;-71
2021/01/28 08:27:12;;;;;;;4.80;2.80;;;5.20;99.90;;;;;;4975488;28;20517;-71
2021/01/28 08:29:39;;;;;;;5.80;2.80;;;5.20;99.90;;;;;;4975290;28;20469;-72
2021/01/28 08:32:18;;;;;;;6.77;3.63;;;5.10;99.90;;;;;;4975721;28;20485;-72
2021/01/28 08:34:44;;;;;;;9.70;3.37;;;5.20;99.90;;;;;;4974093;28;20514;-73
2021/01/28 08:37:15;;;;;;;6.27;3.00;;;5.20;99.90;;;;;;4972778;28;20477;-71
2021/01/28 08:39:50;;;;;;;5.93;3.23;;;5.30;99.90;;;;;;4972859;28;20461;-72
2021/01/28 08:42:20;;;;;;;12.20;3.30;;;5.30;99.90;;;;;;4970036;28;20493;-74
2021/01/28 08:44:48;;;;;;;17.77;3.00;;;5.30;99.90;;;;;;4970707;28;20426;-72
2021/01/28 08:47:15;;;;;;;14.33;3.27;;;5.30;99.90;;;;;;4998274;28;21020;-72
2021/01/28 08:49:42;;;;;;;4.70;1.93;;;5.30;99.90;;;;;;5057689;28;20463;-72
2021/01/28 08:52:12;;;;;;;9.10;2.40;;;5.30;99.90;;;;;;5051511;28;20472;-70
2021/01/28 08:54:41;;;;;;;138.63;70.93;;;5.30;99.90;;;;;;5049481;28;20455;-71
2021/01/28 08:57:10;;;;;;;4.80;2.30;;;5.30;99.90;;;;;;5057406;28;20457;-70
2021/01/28 08:59:44;;;;;;;93.37;30.30;;;5.30;99.90;;;;;;5055017;28;20455;-70
2021/01/28 09:02:30;;;;;;;59.00;9.93;;;5.40;99.90;;;;;;5050153;28;20419;-71
2021/01/28 09:05:25;;;;;;;4.00;2.00;;;5.40;99.90;;;;;;5048765;28;20419;-72
2021/01/28 09:07:57;;;;;;;2.90;1.97;;;5.50;99.90;;;;;;5039350;28;20466;-74
2021/01/28 09:11:05;;;;;;;3.23;2.00;;;5.60;99.90;;;;;;5049257;28;20554;-73
2021/01/28 09:13:30;;;;;;;2.80;1.40;;;5.60;99.90;;;;;;4968168;28;20961;-72
2021/01/28 09:16:12;;;;;;;3.67;2.10;;;5.70;99.90;;;;;;4967356;28;20440;-73
2021/01/28 09:18:43;;;;;;;4.80;1.90;;;5.70;99.90;;;;;;4939471;28;20195;-71
2021/01/28 09:21:21;;;;;;;3.90;2.00;;;5.70;99.90;;;;;;4967958;28;20446;-73
2021/01/28 09:23:56;;;;;;;2.77;1.70;;;5.70;99.90;;;;;;4955940;28;20430;-71
2021/01/28 09:26:30;;;;;;;5.00;1.63;;;5.80;99.90;;;;;;4941551;29;20530;-73
2021/01/28 09:29:29;;;;;;;4.40;2.40;;;5.80;99.90;;;;;;4958078;28;20525;-73
2021/01/28 09:32:09;;;;;;;4.23;1.77;;;5.80;99.90;;;;;;4962572;28;20529;-71
2021/01/28 09:34:34;;;;;;;3.67;1.60;;;5.80;99.90;;;;;;4967025;28;20560;-72
2021/01/28 09:37:04;;;;;;;2.83;1.70;;;5.90;99.90;;;;;;4951955;28;20458;-72
2021/01/28 09:39:42;;;;;;;2.90;1.77;;;5.80;99.90;;;;;;4966072;28;20448;-72
2021/01/28 09:42:12;;;;;;;2.70;1.70;;;5.90;99.90;;;;;;4942376;28;20482;-73
2021/01/28 09:44:47;;;;;;;2.60;1.70;;;5.90;99.90;;;;;;4954360;28;20442;-73
2021/01/28 09:47:17;;;;;;;5.93;2.67;;;5.90;99.90;;;;;;4968040;28;21166;-73
2021/01/28 09:49:44;;;;;;;4.20;2.23;;;5.90;99.90;;;;;;5023658;28;20470;-73
2021/01/28 09:52:30;;;;;;;4.73;1.90;;;5.90;99.90;;;;;;5048994;28;20449;-74
2021/01/28 09:55:02;;;;;;;3.60;1.60;;;5.90;99.90;;;;;;5022070;28;20430;-70
2021/01/28 09:57:28;;;;;;;2.80;1.63;;;5.90;99.90;;;;;;5034726;28;20983;-73
2021/01/28 09:59:57;;;;;;;4.03;1.73;;;5.90;99.90;;;;;;5052973;28;20506;-73
2021/01/28 10:02:41;;;;;;;3.73;1.80;;;5.90;99.90;;;;;;5035114;28;20484;-74
2021/01/28 10:05:08;;;;;;;3.37;2.00;;;5.90;99.90;;;;;;5053476;28;20454;-72
2021/01/28 10:07:34;;;;;;;5.73;1.80;;;6.00;99.90;;;;;;5054277;28;20474;-74
2021/01/28 10:10:02;;;;;;;4.90;2.00;;;6.00;99.90;;;;;;5054421;28;20509;-70
2021/01/28 10:12:28;;;;;;;2.57;1.63;;;6.00;99.90;;;;;;5040814;28;20176;-72
2021/01/28 10:14:55;;;;;;;2.97;1.50;;;6.00;99.90;;;;;;5053370;28;20476;-74
2021/01/28 10:17:21;;;;;;;2.37;1.50;;;6.00;99.90;;;;;;5036155;28;20446;-71
2021/01/28 10:19:47;;;;;;;5.00;1.80;;;6.00;99.90;;;;;;5054886;28;20426;-72
2021/01/28 10:22:16;;;;;;;3.80;1.70;;;6.10;99.90;;;;;;5060417;28;20453;-72
2021/01/28 10:24:41;;;;;;;3.30;1.67;;;6.10;99.90;;;;;;5053873;28;20247;-73
2021/01/28 10:27:08;;;;;;;7.20;1.83;;;6.10;99.90;;;;;;5053333;28;20454;-73
2021/01/28 10:29:35;;;;;;;7.37;2.10;;;6.20;99.90;;;;;;5053540;28;20807;-72
2021/01/28 10:32:00;;;;;;;4.70;1.87;;;6.10;99.90;;;;;;5054909;28;20429;-71
2021/01/28 10:34:26;;;;;;;6.30;2.53;;;6.20;99.90;;;;;;5057772;28;20713;-71
2021/01/28 10:36:52;;;;;;;3.80;1.63;;;6.20;99.90;;;;;;5053870;28;20715;-73
2021/01/28 10:39:18;;;;;;;4.80;2.03;;;6.30;99.90;;;;;;5052973;28;20435;-71
2021/01/28 10:41:48;;;;;;;2.70;1.40;;;6.30;99.90;;;;;;5056267;28;20267;-72
2021/01/28 10:44:14;;;;;;;3.83;2.00;;;6.40;99.90;;;;;;5041305;28;20439;-72
2021/01/28 10:46:42;;;;;;;3.80;1.73;;;6.40;99.90;;;;;;5057683;28;20470;-71
2021/01/28 10:49:08;;;;;;;2.77;1.30;;;6.50;99.90;;;;;;5055113;28;20816;-73
2021/01/28 10:51:34;;;;;;;3.27;1.80;;;6.50;99.90;;;;;;5053591;28;20437;-72
2021/01/28 10:54:00;;;;;;;3.20;1.60;;;6.50;99.90;;;;;;5051913;28;20419;-71
2021/01/28 10:56:25;;;;;;;4.10;1.57;;;6.60;99.90;;;;;;5033538;28;20212;-73
2021/01/28 10:58:52;;;;;;;3.67;1.67;;;6.60;99.90;;;;;;5052302;28;20539;-73
2021/01/28 11:01:21;;;;;;;2.70;1.50;;;6.70;99.90;;;;;;5051786;28;20651;-72
2021/01/28 11:03:47;;;;;;;2.90;1.10;;;6.70;99.90;;;;;;5052191;28;20423;-73
2021/01/28 11:06:13;;;;;;;1.70;1.20;;;6.80;99.90;;;;;;5053833;28;20419;-72
2021/01/28 11:08:39;;;;;;;3.90;1.53;;;6.90;99.90;;;;;;5054319;28;20200;-73
2021/01/28 11:11:05;;;;;;;3.80;1.60;;;6.90;99.90;;;;;;5053940;28;20647;-73
2021/01/28 11:13:31;;;;;;;4.03;1.50;;;6.90;99.90;;;;;;5052341;28;20934;-73
2021/01/28 11:15:57;;;;;;;3.60;1.60;;;6.90;99.90;;;;;;5050950;28;20462;-73
2021/01/28 11:18:23;;;;;;;3.43;1.70;;;6.90;99.90;;;;;;5052789;28;20204;-73
2021/01/28 11:20:48;;;;;;;2.40;1.30;;;6.90;99.90;;;;;;5035453;28;20196;-73
2021/01/28 11:23:14;;;;;;;3.13;1.47;;;7.00;99.90;;;;;;5054278;28;20568;-71
2021/01/28 11:25:40;;;;;;;2.43;1.40;;;7.00;99.90;;;;;;5052186;28;20252;-72
2021/01/28 11:28:06;;;;;;;2.80;1.50;;;7.00;99.90;;;;;;5053680;28;20498;-72
2021/01/28 11:30:34;;;;;;;2.43;1.40;;;7.10;99.90;;;;;;5063885;28;20209;-73
2021/01/28 11:33:02;;;;;;;2.80;1.10;;;7.20;99.90;;;;;;5045127;28;20431;-72
2021/01/28 11:35:31;;;;;;;1.90;1.30;;;7.20;99.90;;;;;;5058927;28;20433;-73
2021/01/28 11:37:58;;;;;;;3.50;1.60;;;7.30;99.90;;;;;;5079127;28;20449;-76
2021/01/28 11:40:26;;;;;;;2.80;1.30;;;7.40;99.90;;;;;;5055014;28;21332;-77
2021/01/28 11:42:52;;;;;;;2.63;1.50;;;7.50;99.90;;;;;;5051207;28;20506;-76
2021/01/28 11:45:25;;;;;;;2.73;1.30;;;7.60;99.90;;;;;;5028674;28;20479;-76
2021/01/28 11:47:51;;;;;;;2.27;1.50;;;7.60;99.70;;;;;;5033345;28;20443;-77
2021/01/28 11:50:17;;;;;;;3.90;1.87;;;7.70;99.40;;;;;;5041574;28;20463;-76
2021/01/28 11:52:44;;;;;;;3.07;2.00;;;7.70;99.20;;;;;;5031573;28;20183;-76
2021/01/28 11:55:13;;;;;;;3.07;1.73;;;7.70;99.10;;;;;;5029473;28;20545;-74
2021/01/28 11:57:39;;;;;;;2.77;1.50;;;7.80;98.90;;;;;;5032521;28;20443;-74
2021/01/28 12:00:08;;;;;;;6.10;1.43;;;7.80;98.90;;;;;;5031797;28;21158;-76
2021/01/28 12:02:33;;;;;;;2.90;1.60;;;7.80;98.90;;;;;;5044600;28;20895;-74
2021/01/28 12:04:59;;;;;;;2.47;1.30;;;7.90;99.10;;;;;;5040915;28;20419;-74
2021/01/28 12:07:25;;;;;;;3.73;1.63;;;7.90;99.10;;;;;;5054304;28;20275;-75
2021/01/28 12:09:51;;;;;;;3.57;1.80;;;8.00;99.00;;;;;;5035535;28;20208;-76
2021/01/28 12:12:16;;;;;;;3.87;2.00;;;8.10;99.10;;;;;;5028899;28;20188;-73
2021/01/28 12:14:42;;;;;;;1.77;1.30;;;8.20;98.70;;;;;;5043556;28;20439;-71
2021/01/28 12:17:08;;;;;;;4.13;2.10;;;8.30;98.60;;;;;;5048054;28;20284;-72
2021/01/28 12:19:34;;;;;;;3.20;2.00;;;8.40;98.40;;;;;;5048637;28;20192;-72
2021/01/28 12:21:59;;;;;;;4.30;1.80;;;8.40;98.40;;;;;;5048008;28;20525;-72
2021/01/28 12:24:25;;;;;;;1.70;1.00;;;8.40;98.00;;;;;;5046288;28;20188;-72
2021/01/28 12:26:53;;;;;;;3.20;1.73;;;8.40;97.80;;;;;;5032936;28;20246;-71
2021/01/28 12:29:19;;;;;;;3.10;1.60;;;8.50;97.80;;;;;;5046215;28;20218;-73
2021/01/28 12:31:45;;;;;;;5.30;1.50;;;8.60;97.80;;;;;;5046148;28;20427;-71
2021/01/28 12:34:11;;;;;;;3.10;1.50;;;8.60;97.70;;;;;;5046959;28;20658;-72
2021/01/28 12:36:36;;;;;;;2.57;1.67;;;8.60;98.10;;;;;;5027432;28;20209;-72
2021/01/28 12:39:03;;;;;;;2.97;1.53;;;8.70;98.30;;;;;;5042346;28;20192;-71
2021/01/28 12:41:29;;;;;;;2.10;1.50;;;8.70;98.30;;;;;;5043916;28;20201;-73
2021/01/28 12:43:55;;;;;;;2.00;1.40;;;8.70;98.30;;;;;;5029529;28;20996;-72
2021/01/28 12:46:20;;;;;;;3.53;1.90;;;8.70;98.40;;;;;;5046908;28;20208;-72
2021/01/28 12:48:46;;;;;;;2.83;1.53;;;8.80;98.60;;;;;;5047183;28;20192;-73
2021/01/28 12:51:12;;;;;;;2.90;1.60;;;8.70;98.70;;;;;;5043915;28;20211;-71
2021/01/28 12:53:37;;;;;;;2.60;1.30;;;8.70;98.90;;;;;;5048870;28;20290;-73
2021/01/28 12:56:03;;;;;;;3.27;1.47;;;8.80;99.10;;;;;;5029992;28;20192;-71
2021/01/28 12:58:29;;;;;;;2.67;1.50;;;8.80;98.90;;;;;;5049197;28;20731;-72
2021/01/28 13:00:55;;;;;;;2.30;1.50;;;8.80;98.90;;;;;;5047882;28;20531;-72
2021/01/28 13:03:21;;;;;;;2.40;1.50;;;8.90;98.80;;;;;;5031219;28;20199;-72
2021/01/28 13:05:46;;;;;;;2.10;1.20;;;8.90;98.90;;;;;;5046126;28;20188;-72
2021/01/28 13:08:12;;;;;;;2.53;1.50;;;8.90;98.70;;;;;;5042995;28;20208;-72
2021/01/28 13:10:38;;;;;;;2.80;1.60;;;8.90;99.00;;;;;;5028435;28;20216;-72
2021/01/28 13:13:03;;;;;;;3.27;1.60;;;9.00;99.20;;;;;;5027278;28;21042;-72